Terminal Aerodrome Forecast
Issued by NWS Cleveland, OH

Home | Current Version | Previous Version | Text Only | Print | Product List | Glossary On
Versions: 1 2 3 4 5 6 7 8 9 10 11 12 13 14 15 16 17 18 19 20 21 22 23 24 25 26 27
000
FTUS41 KCLE 290059 AAA
TAFCLE
TAF AMD
KCLE 290059Z 2901/3006 VRB04KT P6SM SCT015 BKN200
      TEMPO 2901/2903 BKN015
     FM290900 03006KT 6SM BR FEW200
      TEMPO 2910/2912 4SM BR
     FM291400 03010KT P6SM FEW040=

USA.gov is the U.S. government's official web portal to all federal, state and local government web resources and services.